KDRO/DRO METAR and TAF weather

Enter ICAO airport designator
Station Type Date Time Source
KDRO METAR 2020/04/08 20:53 UTC NOAA

KDRO 082053Z AUTO 10SM CLR 18/M09 A3013 RMK AO2 SLP163 T01831089 58018


Station Type Date Time Source
KDRO Decoded METAR 2020/04/08 20:53 UTC NOAA

DURANGO-LA PLATA COUNTY AIRPORT , CO, United States (KDRO) 37-09N 107-46W 2035M
Apr 08, 2020 - 04:53 PM EDT / 2020.04.08 2053 UTC
Visibility: 10 mile(s):0
Sky conditions: clear
Temperature: 64.9 F (18.3 C)
Dew Point: 16.0 F (-8.9 C)
Relative Humidity: 14%
Pressure (altimeter): 30.13 in. Hg (1020 hPa)
Pressure tendency: 0.05 inches (1.8 hPa) lower than three hours ago
ob: KDRO 082053Z AUTO 10SM CLR 18/M09 A3013 RMK AO2 SLP163 T01831089 58018
cycle: 21

Station Type Date Time Source
KDRO TAF 2020/04/08 18:39 UTC NOAA

TAF KDRO 081737Z 0818/0918 23006KT P6SM SKC
FM082100 23008G15KT P6SM FEW250
FM090100 15007KT P6SM FEW250
FM090400 05005KT P6SM SCT250

Example: see airport list